• Join FlightAware (Why Join?)
  • Login
  • US Flag 
06:37PM EDT


 

Airport Tracker/Info


-or-


 

Live Flight TrackerFlight Track Log ✈ N560HM ✈ 24-Mar-2014 ✈ KBUF - KAGC

Flight Track Log - Related Links

Times and Time Zones

All times are in EDT time to prevent confusion due to time zone crossing. See the N560HM flight status page for this flight to view local times or setup timezone preferences in your user account.

Time Position Orientation Groundspeed Altitude Reporting Facility
EDT Latitude Longitude Course Direction KTS MPH feet Rate Location/Type
01:58PM 42.9333 -78.7333 207° Southwest 177 204 1,500  Level Buffalo TRACON
02:00PM 42.8411 -78.7983 207° Southwest 233 268 7,900 3,540 Climbing Cleveland Center
02:01PM 42.7722 -78.8311 199° South 245 282 11,000 2,580 Climbing Cleveland Center
02:02PM 42.6981 -78.8656 199° South 278 320 13,300 2,160 Climbing Cleveland Center
02:03PM 42.6181 -78.8858 191° South 292 336 15,500 1,320 Climbing Cleveland Center
02:04PM 42.5289 -78.9061 190° South 326 375 16,100 240 Climbing Cleveland Center
02:05PM 42.4325 -78.9308 191° South 342 394 16,000 -60 Descending Cleveland Center
02:06PM 42.3386 -78.9544 191° South 343 395 16,000  Level Cleveland Center
02:07PM 42.2267 -78.9814 190° South 344 396 16,000  Level Cleveland Center
02:08PM 42.1331 -79.0061 191° South 344 396 16,000  Level Cleveland Center
02:09PM 42.0403 -79.0300 191° South 343 395 16,000  Level Cleveland Center
02:10PM 41.9478 -79.0522 190° South 342 394 16,000 -60 Level Cleveland Center
02:11PM 41.8547 -79.0736 190° South 344 396 15,900 -60 Descending Cleveland Center
02:12PM 41.7425 -79.1028 191° South 344 396 15,900  Level Cleveland Center
02:13PM 41.6483 -79.1267 191° South 343 395 15,900  Level Cleveland Center
02:15PM 41.5558 -79.1511 191° South 343 395 15,900  Level Cleveland Center
02:16PM 41.4625 -79.1739 190° South 343 395 15,900  Level Cleveland Center
02:17PM 41.3711 -79.1953 190° South 342 394 15,900  Level Cleveland Center
02:18PM 41.2797 -79.2175 190° South 340 391 15,900  Level Cleveland Center
02:19PM 41.1697 -79.2453 191° South 339 390 15,900 -60 Level Cleveland Center
02:20PM 41.0858 -79.2650 190° South 339 390 15,800 -780 Descending Cleveland Center
02:21PM 40.9964 -79.2861 190° South 330 380 14,400 -1,560 Descending Cleveland Center
02:21PM 40.9594 -79.2964 192° South 329 379 13,800 -1,980 Descending Cleveland Center
02:21PM 40.9297 -79.3031 190° South 331 381 13,300 -1,080 Descending Cleveland Center
02:22PM 40.9047 -79.3092 190° South 330 380 13,000 -1,320 Descending Cleveland Center
02:22PM 40.8400 -79.3233 189° South 327 376 12,000 -1,560 Descending Cleveland Center
02:23PM 40.8000 -79.3336 191° South 324 373 11,400 -1,320 Descending Cleveland Center
02:23PM 40.7606 -79.3447 192° South 295 339 10,700 -1,260 Descending Cleveland Center
02:24PM 40.7219 -79.3522 188° South 298 343 10,100 -1,320 Descending Cleveland Center
02:24PM 40.6792 -79.3633 191° South 275 316 9,400 -1,200 Descending Cleveland Center
02:25PM 40.6464 -79.3711 190° South 284 327 8,900 -1,320 Descending Cleveland Center
02:25PM 40.6044 -79.3800 189° South 273 314 8,100 -1,260 Descending Cleveland Center
02:26PM 40.5719 -79.3883 191° South 277 319 7,600 -1,320 Descending Cleveland Center
02:26PM 40.5336 -79.3997 193° South 267 307 6,800 -1,200 Descending Cleveland Center
02:27PM 40.5103 -79.4172 210° Southwest 260 299 6,400 -840 Descending Cleveland Center
02:28PM 40.4847 -79.4936 246° West 235 270 5,500 -900 Descending Cleveland Center
02:29PM 40.4539 -79.5856 246° West 233 268 4,600 -1,020 Descending Cleveland Center
02:30PM 40.4228 -79.6556 240° Southwest 227 261 3,500 -780 Descending Cleveland Center
02:31PM 40.3964 -79.7217 242° Southwest 218 251 3,100 -300 Descending Cleveland Center
02:32PM 40.3772 -79.7778 246° West 185 213 3,000 -180 Descending Cleveland Center
02:33PM 40.3597 -79.8325 247° West 173 199 2,800 -540 Descending Cleveland Center
02:34PM 40.3542 -79.8811 261° West 150 173 2,000 -780 Descending Cleveland Center
02:35PM 40.3539 -79.9219 270° West 129 148 1,300 -720 Descending Cleveland Center
02:37PM 40.3500 -79.9167 270° West  Level FlightAware Approximate